Time;durP1;ratioP1;P1;durP2;ratioP2;P2;SDS_P1;SDS_P2;PMS_P1;PMS_P2;Temp;Humidity;BMP_temperature;BMP_pressure;BME280_temperature;BME280_humidity;BME280_pressure;Samples;Min_cycle;Max_cycle;Signal;HPM_P1;HPM_P2
2021/12/23 00:01:08;;;;;;;43.03;24.77;;;;;;;;;;5089243;28;20458;-74
2021/12/23 00:03:34;;;;;;;41.93;26.27;;;;;;;;;;5068931;28;20521;-74
2021/12/23 00:06:00;;;;;;;42.73;24.63;;;;;;;;;;5080629;28;20452;-74
2021/12/23 00:08:27;;;;;;;39.20;24.20;;;;;;;;;;5088223;28;20434;-74
2021/12/23 00:10:53;;;;;;;40.50;23.33;;;;;;;;;;5087831;28;20427;-74
2021/12/23 00:13:19;;;;;;;43.53;26.47;;;;;;;;;;5088076;28;20441;-74
2021/12/23 00:23:48;;;;;;;43.67;25.47;;;;;;;;;;5086540;28;20792;-74
2021/12/23 00:26:14;;;;;;;44.57;26.03;;;;;;;;;;5090876;28;20469;-74
2021/12/23 00:28:40;;;;;;;45.43;25.83;;;;;;;;;;5090081;28;20479;-73
2021/12/23 00:31:06;;;;;;;45.73;26.20;;;;;;;;;;5090019;28;20784;-74
2021/12/23 00:33:35;;;;;;;40.07;24.60;;;;;;;;;;5092850;28;20435;-74
2021/12/23 00:36:03;;;;;;;43.73;26.70;;;;;;;;;;5075000;28;20485;-74
2021/12/23 00:38:34;;;;;;;41.17;25.73;;;;;;;;;;5093203;28;21102;-73
2021/12/23 00:41:02;;;;;;;45.67;26.73;;;;;;;;;;5093832;28;20812;-73
2021/12/23 00:43:29;;;;;;;42.73;25.60;;;;;;;;;;5092106;28;20480;-74
2021/12/23 00:45:55;;;;;;;44.20;27.13;;;;;;;;;;5091745;28;20927;-74
2021/12/23 00:48:22;;;;;;;42.53;26.00;;;;;;;;;;5107311;28;20425;-74
2021/12/23 00:50:48;;;;;;;45.10;25.83;;;;;;;;;;5094310;28;20521;-73
2021/12/23 00:53:19;;;;;;;42.43;25.23;;;;;;;;;;5072395;28;20423;-74
2021/12/23 00:55:47;;;;;;;45.07;26.67;;;;;;;;;;5078932;28;21016;-73
2021/12/23 00:58:14;;;;;;;45.37;26.63;;;;;;;;;;5090365;28;20819;-73
2021/12/23 01:00:40;;;;;;;37.60;23.67;;;;;;;;;;5093004;28;20785;-73
2021/12/23 01:03:06;;;;;;;43.17;24.77;;;;;;;;;;5092796;28;20563;-73
2021/12/23 01:05:33;;;;;;;44.10;25.87;;;;;;;;;;5091244;28;20558;-74
2021/12/23 01:07:59;;;;;;;46.23;26.17;;;;;;;;;;5071197;28;20467;-73
2021/12/23 01:10:25;;;;;;;42.87;26.03;;;;;;;;;;5092344;28;20439;-73
2021/12/23 01:12:57;;;;;;;43.67;26.10;;;;;;;;;;5093084;28;20430;-73
2021/12/23 01:17:59;;;;;;;41.57;25.33;;;;;;;;;;5087288;28;20445;-73
2021/12/23 01:20:30;;;;;;;40.40;25.27;;;;;;;;;;5093015;28;20861;-74
2021/12/23 01:22:58;;;;;;;40.73;24.67;;;;;;;;;;5070129;28;20424;-73
2021/12/23 01:25:24;;;;;;;43.83;26.10;;;;;;;;;;5083684;28;20458;-73
2021/12/23 01:27:51;;;;;;;41.77;25.33;;;;;;;;;;5090283;28;20437;-73
2021/12/23 01:30:17;;;;;;;40.93;24.70;;;;;;;;;;5091650;28;21000;-73
2021/12/23 01:32:44;;;;;;;43.07;24.03;;;;;;;;;;5087055;28;20488;-73
2021/12/23 01:35:11;;;;;;;40.67;24.67;;;;;;;;;;5086106;28;20459;-73
2021/12/23 01:37:37;;;;;;;44.50;24.63;;;;;;;;;;5089878;28;20437;-73
2021/12/23 01:40:04;;;;;;;45.17;25.50;;;;;;;;;;5093639;28;20815;-73
2021/12/23 01:42:30;;;;;;;40.80;23.93;;;;;;;;;;5092793;28;20422;-73
2021/12/23 01:44:56;;;;;;;44.87;26.77;;;;;;;;;;5090781;28;20446;-73
2021/12/23 01:47:23;;;;;;;41.97;25.07;;;;;;;;;;5091888;28;20419;-74
2021/12/23 01:49:49;;;;;;;43.93;25.30;;;;;;;;;;5092741;28;20434;-73
2021/12/23 01:52:16;;;;;;;44.93;24.90;;;;;;;;;;5091837;28;20426;-73
2021/12/23 01:54:42;;;;;;;46.30;25.97;;;;;;;;;;5090594;28;20454;-73
2021/12/23 01:57:08;;;;;;;42.00;24.53;;;;;;;;;;5090540;28;20441;-73
2021/12/23 01:59:35;;;;;;;44.13;26.00;;;;;;;;;;5092029;28;20497;-73
2021/12/23 02:02:01;;;;;;;43.13;24.93;;;;;;;;;;5085642;28;20771;-74
2021/12/23 02:04:27;;;;;;;46.47;26.70;;;;;;;;;;5080446;28;20419;-73
2021/12/23 02:06:53;;;;;;;45.07;26.70;;;;;;;;;;5091694;28;20462;-73
2021/12/23 02:09:19;;;;;;;41.70;25.60;;;;;;;;;;5085826;28;20443;-73
2021/12/23 02:11:46;;;;;;;45.90;26.77;;;;;;;;;;5088930;28;20426;-73
2021/12/23 02:14:12;;;;;;;43.90;25.50;;;;;;;;;;5091205;28;20492;-73
2021/12/23 02:16:38;;;;;;;43.27;26.23;;;;;;;;;;5089813;28;20918;-73
2021/12/23 02:19:05;;;;;;;42.90;24.97;;;;;;;;;;5089207;28;20436;-73
2021/12/23 02:21:31;;;;;;;48.27;26.90;;;;;;;;;;5090559;28;20855;-73
2021/12/23 02:23:57;;;;;;;45.83;26.90;;;;;;;;;;5069424;28;20523;-73
2021/12/23 02:26:23;;;;;;;42.67;24.80;;;;;;;;;;5071502;28;20437;-73
2021/12/23 02:28:49;;;;;;;43.27;25.90;;;;;;;;;;5089702;28;20431;-73
2021/12/23 02:31:16;;;;;;;43.37;26.40;;;;;;;;;;5090317;28;20514;-73
2021/12/23 02:33:42;;;;;;;39.30;24.77;;;;;;;;;;5091093;28;20442;-73
2021/12/23 02:36:11;;;;;;;41.90;24.23;;;;;;;;;;5089231;28;20477;-73
2021/12/23 02:38:37;;;;;;;50.30;26.50;;;;;;;;;;5089871;28;20525;-74
2021/12/23 02:41:03;;;;;;;46.77;26.57;;;;;;;;;;5088887;28;20486;-74
2021/12/23 02:43:29;;;;;;;46.47;27.57;;;;;;;;;;5091196;28;20476;-74
2021/12/23 02:45:57;;;;;;;42.63;25.17;;;;;;;;;;5089555;28;20435;-73
2021/12/23 02:48:25;;;;;;;46.83;27.03;;;;;;;;;;5088718;28;20479;-73
2021/12/23 02:50:52;;;;;;;44.27;25.93;;;;;;;;;;5091285;28;20426;-73
2021/12/23 02:53:18;;;;;;;48.37;28.07;;;;;;;;;;5090321;28;20437;-73
2021/12/23 02:55:45;;;;;;;46.37;26.43;;;;;;;;;;5072453;28;20957;-74
2021/12/23 02:58:11;;;;;;;45.23;26.43;;;;;;;;;;5090387;28;20480;-74
2021/12/23 03:00:39;;;;;;;41.20;25.87;;;;;;;;;;5090396;28;20458;-73
2021/12/23 03:03:05;;;;;;;43.03;25.63;;;;;;;;;;5089370;28;20780;-74
2021/12/23 03:05:32;;;;;;;43.10;26.07;;;;;;;;;;5088914;28;20446;-74
2021/12/23 03:07:59;;;;;;;47.70;27.70;;;;;;;;;;5089809;28;21109;-74
2021/12/23 03:10:26;;;;;;;44.30;25.87;;;;;;;;;;5089761;28;20426;-74
2021/12/23 03:12:52;;;;;;;43.53;26.37;;;;;;;;;;5088593;28;20529;-74
2021/12/23 03:15:18;;;;;;;48.77;27.67;;;;;;;;;;5088576;28;20537;-74
2021/12/23 03:17:44;;;;;;;40.97;25.10;;;;;;;;;;5088639;28;20480;-74
2021/12/23 03:20:11;;;;;;;45.03;26.03;;;;;;;;;;5090004;28;20476;-74
2021/12/23 03:22:37;;;;;;;45.77;26.83;;;;;;;;;;5090722;28;20752;-74
2021/12/23 03:25:03;;;;;;;43.03;26.20;;;;;;;;;;5088073;28;20446;-73
2021/12/23 03:27:30;;;;;;;44.43;25.53;;;;;;;;;;5070852;28;20520;-73
2021/12/23 03:29:56;;;;;;;44.13;25.57;;;;;;;;;;5086994;28;20447;-73
2021/12/23 03:32:23;;;;;;;47.80;26.40;;;;;;;;;;5089843;28;20429;-73
2021/12/23 03:34:49;;;;;;;40.70;24.97;;;;;;;;;;5081973;28;20494;-73
2021/12/23 03:37:16;;;;;;;44.87;25.23;;;;;;;;;;5090149;28;20582;-73
2021/12/23 03:39:42;;;;;;;40.37;23.73;;;;;;;;;;5088505;28;20527;-73
2021/12/23 03:42:09;;;;;;;41.33;24.63;;;;;;;;;;5087973;28;20423;-73
2021/12/23 03:44:35;;;;;;;41.43;24.87;;;;;;;;;;5088839;28;20447;-74
2021/12/23 03:47:01;;;;;;;40.03;23.67;;;;;;;;;;5089718;28;20438;-74
2021/12/23 03:49:27;;;;;;;50.93;26.53;;;;;;;;;;5089260;28;20435;-74
2021/12/23 03:51:53;;;;;;;45.87;25.93;;;;;;;;;;5089436;28;20572;-73
2021/12/23 03:54:19;;;;;;;47.70;27.23;;;;;;;;;;5088959;28;20434;-74
2021/12/23 03:56:46;;;;;;;45.83;25.60;;;;;;;;;;5086907;28;20445;-73
2021/12/23 03:59:14;;;;;;;43.77;25.63;;;;;;;;;;5089826;28;20426;-73
2021/12/23 04:01:40;;;;;;;48.23;26.43;;;;;;;;;;5089903;28;20427;-74
2021/12/23 04:04:06;;;;;;;42.07;24.90;;;;;;;;;;5058766;28;21047;-73
2021/12/23 04:06:33;;;;;;;46.87;26.50;;;;;;;;;;5083920;28;20518;-74
2021/12/23 04:08:59;;;;;;;42.93;24.10;;;;;;;;;;5091753;28;20453;-74
2021/12/23 04:11:25;;;;;;;43.13;23.57;;;;;;;;;;5090640;28;20461;-74
2021/12/23 04:13:53;;;;;;;43.60;24.87;;;;;;;;;;5089350;28;20986;-73
2021/12/23 04:16:20;;;;;;;43.80;24.63;;;;;;;;;;5088925;28;20453;-73
2021/12/23 04:18:49;;;;;;;41.73;23.83;;;;;;;;;;5074496;28;20529;-74
2021/12/23 04:21:16;;;;;;;50.50;26.63;;;;;;;;;;5092177;28;20523;-73
2021/12/23 04:23:42;;;;;;;44.30;25.77;;;;;;;;;;5092041;28;20504;-73
2021/12/23 04:26:09;;;;;;;41.37;24.50;;;;;;;;;;5054917;28;20455;-73
2021/12/23 04:28:44;;;;;;;51.07;27.50;;;;;;;;;;5073566;28;20434;-73
2021/12/23 04:31:11;;;;;;;48.33;27.27;;;;;;;;;;5093227;28;20963;-73
2021/12/23 04:33:37;;;;;;;54.23;28.73;;;;;;;;;;5091598;28;20995;-73
2021/12/23 04:36:03;;;;;;;54.77;29.40;;;;;;;;;;5074785;28;20450;-73
2021/12/23 04:38:29;;;;;;;47.67;28.10;;;;;;;;;;5075616;28;20446;-74
2021/12/23 04:40:55;;;;;;;48.47;26.97;;;;;;;;;;5092511;28;20996;-74
2021/12/23 04:43:22;;;;;;;55.83;28.60;;;;;;;;;;5073667;28;20432;-74
2021/12/23 04:45:48;;;;;;;57.07;30.13;;;;;;;;;;5091246;28;20442;-74
2021/12/23 04:48:14;;;;;;;57.50;29.63;;;;;;;;;;5091554;28;20844;-74
2021/12/23 04:50:40;;;;;;;53.00;29.27;;;;;;;;;;5091033;28;20433;-73
2021/12/23 04:53:06;;;;;;;53.27;28.37;;;;;;;;;;5089807;28;20426;-73
2021/12/23 04:55:32;;;;;;;52.50;28.20;;;;;;;;;;5094098;28;20227;-74
2021/12/23 04:57:58;;;;;;;56.37;29.07;;;;;;;;;;5093290;28;20807;-74
2021/12/23 05:00:25;;;;;;;58.43;30.00;;;;;;;;;;5091939;28;20978;-74
2021/12/23 05:02:51;;;;;;;51.77;27.77;;;;;;;;;;5092704;28;20423;-74
2021/12/23 05:05:17;;;;;;;50.53;27.77;;;;;;;;;;5091084;28;20571;-73
2021/12/23 05:07:44;;;;;;;57.07;30.17;;;;;;;;;;5092681;28;20426;-73
2021/12/23 05:10:11;;;;;;;57.47;29.30;;;;;;;;;;5090496;28;20430;-74
2021/12/23 05:12:45;;;;;;;53.43;28.50;;;;;;;;;;5091286;28;20680;-74
2021/12/23 05:15:12;;;;;;;52.57;28.23;;;;;;;;;;5088801;28;21052;-73
2021/12/23 05:17:39;;;;;;;52.80;29.27;;;;;;;;;;5092683;28;20317;-74
2021/12/23 05:20:06;;;;;;;52.33;28.00;;;;;;;;;;5090833;28;20295;-74
2021/12/23 05:22:32;;;;;;;50.73;27.70;;;;;;;;;;5091619;28;20468;-74
2021/12/23 05:24:58;;;;;;;50.80;27.83;;;;;;;;;;5092243;28;20197;-74
2021/12/23 05:27:25;;;;;;;52.97;29.33;;;;;;;;;;5092640;28;20419;-74
2021/12/23 05:29:51;;;;;;;51.67;27.83;;;;;;;;;;5070665;28;20923;-74
2021/12/23 05:32:17;;;;;;;53.87;27.93;;;;;;;;;;5090529;28;20430;-74
2021/12/23 05:34:43;;;;;;;52.90;29.43;;;;;;;;;;5091852;28;20466;-74
2021/12/23 05:37:09;;;;;;;58.97;34.27;;;;;;;;;;5091473;28;20426;-73
2021/12/23 05:39:35;;;;;;;50.80;28.27;;;;;;;;;;5091430;28;20944;-74
2021/12/23 05:42:02;;;;;;;50.73;30.20;;;;;;;;;;5090654;28;20419;-74
2021/12/23 05:44:28;;;;;;;54.75;30.52;;;;;;;;;;5090720;28;20986;-73
2021/12/23 05:46:54;;;;;;;51.33;28.27;;;;;;;;;;5090868;28;20176;-73
2021/12/23 05:49:20;;;;;;;48.67;28.33;;;;;;;;;;5091782;28;20469;-73
2021/12/23 05:51:46;;;;;;;50.27;26.90;;;;;;;;;;5090595;28;20177;-73
2021/12/23 05:54:13;;;;;;;46.23;26.20;;;;;;;;;;5090255;28;20496;-74
2021/12/23 05:56:39;;;;;;;47.60;27.13;;;;;;;;;;5091653;28;20526;-74
2021/12/23 05:59:05;;;;;;;47.10;27.50;;;;;;;;;;5090914;28;20475;-74
2021/12/23 06:01:31;;;;;;;49.20;27.17;;;;;;;;;;5091451;28;20553;-73
2021/12/23 06:03:58;;;;;;;43.53;24.97;;;;;;;;;;5091487;28;20837;-74
2021/12/23 06:06:24;;;;;;;42.00;25.13;;;;;;;;;;5090860;28;20809;-74
2021/12/23 06:08:50;;;;;;;50.27;27.07;;;;;;;;;;5087791;28;21055;-74
2021/12/23 06:11:16;;;;;;;43.50;24.47;;;;;;;;;;5088424;28;20956;-74
2021/12/23 06:13:42;;;;;;;46.63;26.57;;;;;;;;;;5090430;28;20433;-74
2021/12/23 06:16:09;;;;;;;42.93;25.60;;;;;;;;;;5089999;28;20474;-73
2021/12/23 06:18:35;;;;;;;42.83;25.23;;;;;;;;;;5094451;28;20975;-74
2021/12/23 06:21:01;;;;;;;48.47;25.93;;;;;;;;;;5090953;28;20629;-73
2021/12/23 06:23:27;;;;;;;45.10;26.87;;;;;;;;;;5102087;28;20192;-74
2021/12/23 06:25:54;;;;;;;43.53;26.20;;;;;;;;;;5090821;28;20451;-73
2021/12/23 06:28:20;;;;;;;45.23;25.77;;;;;;;;;;5089849;28;20180;-73
2021/12/23 06:30:47;;;;;;;47.40;26.33;;;;;;;;;;5091148;28;20475;-73
2021/12/23 06:33:13;;;;;;;51.70;27.43;;;;;;;;;;5090604;28;20967;-74
2021/12/23 06:35:39;;;;;;;45.00;25.97;;;;;;;;;;5090687;28;20457;-74
2021/12/23 06:38:07;;;;;;;46.47;25.73;;;;;;;;;;5089215;28;20272;-73
2021/12/23 06:40:33;;;;;;;42.77;25.03;;;;;;;;;;5092298;28;20458;-74
2021/12/23 06:43:00;;;;;;;41.43;24.50;;;;;;;;;;5073366;28;20430;-74
2021/12/23 06:45:26;;;;;;;42.00;24.07;;;;;;;;;;5084824;28;20447;-74
2021/12/23 06:47:52;;;;;;;45.57;25.70;;;;;;;;;;5089963;28;20821;-74
2021/12/23 06:50:20;;;;;;;42.37;25.17;;;;;;;;;;5090758;28;20895;-73
2021/12/23 06:52:46;;;;;;;45.23;25.97;;;;;;;;;;5088820;28;20176;-74
2021/12/23 06:55:13;;;;;;;42.07;24.10;;;;;;;;;;5090373;28;20450;-73
2021/12/23 06:57:40;;;;;;;41.07;23.67;;;;;;;;;;5090569;28;20517;-74
2021/12/23 07:00:09;;;;;;;43.30;24.73;;;;;;;;;;5089353;28;20458;-74
2021/12/23 07:02:38;;;;;;;43.20;24.67;;;;;;;;;;5090420;28;20176;-73
2021/12/23 07:05:05;;;;;;;43.90;25.90;;;;;;;;;;5090076;28;20473;-74
2021/12/23 07:07:40;;;;;;;45.67;26.13;;;;;;;;;;5078878;28;20179;-74
2021/12/23 07:10:07;;;;;;;48.77;26.90;;;;;;;;;;5088517;28;20865;-74
2021/12/23 07:12:33;;;;;;;45.63;26.87;;;;;;;;;;5086098;28;20192;-74
2021/12/23 07:14:59;;;;;;;46.60;26.87;;;;;;;;;;5090557;28;20893;-74
2021/12/23 07:17:25;;;;;;;43.83;24.97;;;;;;;;;;5089325;28;20187;-74
2021/12/23 07:19:51;;;;;;;45.87;25.90;;;;;;;;;;5072373;28;20481;-74
2021/12/23 07:22:17;;;;;;;41.17;24.50;;;;;;;;;;5089003;28;20567;-74
2021/12/23 07:24:44;;;;;;;46.40;25.67;;;;;;;;;;5084756;28;20338;-73
2021/12/23 07:27:10;;;;;;;47.10;26.30;;;;;;;;;;5087422;28;20230;-73
2021/12/23 07:29:36;;;;;;;48.53;26.33;;;;;;;;;;5071693;28;20498;-73
2021/12/23 07:32:04;;;;;;;47.70;26.33;;;;;;;;;;5072017;28;20259;-74
2021/12/23 07:34:31;;;;;;;45.23;25.83;;;;;;;;;;5087935;28;20237;-74
2021/12/23 07:36:57;;;;;;;41.13;23.57;;;;;;;;;;5089549;28;20997;-74
2021/12/23 07:39:23;;;;;;;40.23;23.70;;;;;;;;;;5085927;28;20434;-74
2021/12/23 07:41:49;;;;;;;46.53;26.20;;;;;;;;;;5090455;28;20471;-74
2021/12/23 07:44:20;;;;;;;42.37;25.10;;;;;;;;;;5089599;28;20183;-74
2021/12/23 07:46:47;;;;;;;42.70;24.27;;;;;;;;;;5088112;28;20627;-74
2021/12/23 07:49:13;;;;;;;41.60;24.20;;;;;;;;;;5087930;28;20199;-73
2021/12/23 07:51:40;;;;;;;44.53;25.50;;;;;;;;;;5089416;28;20441;-73
2021/12/23 07:54:06;;;;;;;47.30;25.60;;;;;;;;;;5088102;28;20179;-74
2021/12/23 07:56:33;;;;;;;43.37;24.33;;;;;;;;;;5087079;28;20200;-74
2021/12/23 07:58:59;;;;;;;42.50;23.70;;;;;;;;;;5070863;28;20518;-74
2021/12/23 08:01:25;;;;;;;41.27;23.93;;;;;;;;;;5090036;28;20322;-77
2021/12/23 08:03:51;;;;;;;43.30;23.40;;;;;;;;;;5069338;28;20185;-75
2021/12/23 08:06:17;;;;;;;43.57;24.43;;;;;;;;;;5083680;28;20557;-77
2021/12/23 08:08:44;;;;;;;45.23;25.23;;;;;;;;;;5069173;28;20187;-80
2021/12/23 08:11:10;;;;;;;49.40;25.50;;;;;;;;;;5069221;28;20184;-75
2021/12/23 08:13:37;;;;;;;40.10;23.17;;;;;;;;;;5090342;28;20556;-77
2021/12/23 08:16:04;;;;;;;41.13;23.90;;;;;;;;;;5072239;28;20212;-77
2021/12/23 08:18:31;;;;;;;41.20;22.97;;;;;;;;;;5089065;28;20187;-77
2021/12/23 08:20:58;;;;;;;41.23;24.03;;;;;;;;;;5088105;28;20752;-77
2021/12/23 08:23:24;;;;;;;38.90;22.70;;;;;;;;;;5089205;28;20181;-76
2021/12/23 08:25:51;;;;;;;40.27;23.60;;;;;;;;;;5088469;28;20196;-76
2021/12/23 08:28:17;;;;;;;40.53;23.60;;;;;;;;;;5088896;28;20696;-76
2021/12/23 08:30:43;;;;;;;41.37;22.70;;;;;;;;;;5091117;28;20176;-79
2021/12/23 08:33:09;;;;;;;40.80;23.43;;;;;;;;;;5089324;28;20277;-77
2021/12/23 08:35:36;;;;;;;45.93;24.07;;;;;;;;;;5053463;28;20488;-77
2021/12/23 08:38:03;;;;;;;36.33;22.33;;;;;;;;;;5068043;28;20224;-77
2021/12/23 08:40:29;;;;;;;36.73;22.63;;;;;;;;;;5087615;28;20367;-78
2021/12/23 08:42:56;;;;;;;40.43;23.00;;;;;;;;;;5088199;28;20217;-77
2021/12/23 08:45:23;;;;;;;39.93;22.80;;;;;;;;;;5087523;28;20807;-77
2021/12/23 08:47:50;;;;;;;37.83;21.97;;;;;;;;;;5091600;28;20672;-79
2021/12/23 08:50:17;;;;;;;42.70;22.77;;;;;;;;;;5072990;28;20336;-77
2021/12/23 08:52:43;;;;;;;42.93;23.33;;;;;;;;;;5089695;28;20172;-75
2021/12/23 08:55:10;;;;;;;40.40;23.40;;;;;;;;;;5086488;28;20235;-75
2021/12/23 08:57:36;;;;;;;38.77;22.23;;;;;;;;;;5087843;28;20181;-76
2021/12/23 09:00:07;;;;;;;37.80;22.33;;;;;;;;;;5089376;28;20204;-75
2021/12/23 09:02:33;;;;;;;38.77;21.97;;;;;;;;;;5087289;28;20703;-75
2021/12/23 09:04:59;;;;;;;35.03;21.87;;;;;;;;;;5082127;28;20345;-77
2021/12/23 09:07:26;;;;;;;36.60;21.87;;;;;;;;;;5085319;28;20188;-76
2021/12/23 09:09:52;;;;;;;39.33;22.23;;;;;;;;;;5083060;28;20189;-76
2021/12/23 09:12:19;;;;;;;37.83;22.23;;;;;;;;;;5080805;28;20495;-77
2021/12/23 09:14:46;;;;;;;38.23;21.90;;;;;;;;;;5082086;28;20204;-76
2021/12/23 09:17:14;;;;;;;33.07;20.17;;;;;;;;;;5081236;28;21150;-77
2021/12/23 09:19:41;;;;;;;35.70;20.60;;;;;;;;;;5069154;28;20196;-80
2021/12/23 09:22:08;;;;;;;34.73;21.43;;;;;;;;;;5088009;28;20679;-79
2021/12/23 09:24:37;;;;;;;36.33;21.07;;;;;;;;;;5090962;28;20755;-81
2021/12/23 09:35:01;;;;;;;37.10;21.23;;;;;;;;;;5087536;28;20209;-84
2021/12/23 09:37:28;;;;;;;36.50;21.40;;;;;;;;;;5073165;28;20271;-81
2021/12/23 09:39:56;;;;;;;37.47;20.80;;;;;;;;;;5091066;28;20201;-79
2021/12/23 09:42:25;;;;;;;36.57;20.33;;;;;;;;;;5057048;28;20188;-80
2021/12/23 09:44:53;;;;;;;36.03;21.20;;;;;;;;;;5071901;28;20224;-79
2021/12/23 09:47:20;;;;;;;36.87;22.03;;;;;;;;;;5072622;28;20208;-79
2021/12/23 09:49:46;;;;;;;37.50;21.53;;;;;;;;;;5090417;28;20213;-80
2021/12/23 09:52:12;;;;;;;38.10;21.63;;;;;;;;;;5073678;28;20656;-79
2021/12/23 09:54:39;;;;;;;33.47;21.07;;;;;;;;;;5071472;28;20668;-81
2021/12/23 09:57:05;;;;;;;37.10;21.97;;;;;;;;;;5060233;28;20191;-81
2021/12/23 09:59:31;;;;;;;32.57;19.93;;;;;;;;;;5091155;28;20237;-80
2021/12/23 10:01:57;;;;;;;37.00;21.03;;;;;;;;;;5073897;28;20176;-80
2021/12/23 10:04:24;;;;;;;34.90;21.13;;;;;;;;;;5092244;28;20203;-80
2021/12/23 10:06:51;;;;;;;34.60;20.87;;;;;;;;;;5075417;28;20348;-80
2021/12/23 10:09:36;;;;;;;36.13;21.87;;;;;;;;;;5072006;28;20204;-80
2021/12/23 10:12:58;;;;;;;37.13;20.33;;;;;;;;;;5106379;28;20193;-80
2021/12/23 10:31:44;;;;;;;37.07;20.77;;;;;;;;;;5091315;28;20229;-80
2021/12/23 10:39:43;;;;;;;37.67;21.50;;;;;;;;;;5087037;28;20184;-79
2021/12/23 10:42:15;;;;;;;36.43;21.60;;;;;;;;;;5068769;28;20185;-78
2021/12/23 10:44:47;;;;;;;36.33;21.27;;;;;;;;;;5072214;28;20695;-80
2021/12/23 10:47:37;;;;;;;33.87;20.30;;;;;;;;;;5090543;28;20177;-82
2021/12/23 10:50:24;;;;;;;35.60;21.23;;;;;;;;;;5069207;28;20177;-77
2021/12/23 10:52:56;;;;;;;37.97;21.40;;;;;;;;;;5072964;28;20196;-77
2021/12/23 11:00:31;;;;;;;33.53;21.40;;;;;;;;;;5089630;28;20743;-78
2021/12/23 11:06:08;;;;;;;33.77;19.53;;;;;;;;;;5082772;28;20219;-78
2021/12/23 11:11:31;;;;;;;35.00;20.53;;;;;;;;;;5089110;28;20710;-78
2021/12/23 11:28:06;;;;;;;31.60;19.57;;;;;;;;;;5069361;28;20661;-77
2021/12/23 11:36:19;;;;;;;32.93;19.33;;;;;;;;;;5079085;28;20216;-78
2021/12/23 11:41:38;;;;;;;31.70;19.97;;;;;;;;;;5087327;28;20228;-78
2021/12/23 11:44:02;;;;;;;31.17;19.77;;;;;;;;;;5086979;28;20212;-78
2021/12/23 11:46:39;;;;;;;31.87;18.33;;;;;;;;;;5082474;28;20210;-80
2021/12/23 11:49:08;;;;;;;27.77;18.10;;;;;;;;;;5083455;28;20529;-78
2021/12/23 11:51:46;;;;;;;30.50;18.83;;;;;;;;;;5082115;28;20187;-79
2021/12/23 11:54:18;;;;;;;31.27;19.00;;;;;;;;;;5084186;28;20172;-80
2021/12/23 11:56:51;;;;;;;31.27;18.70;;;;;;;;;;5086299;28;20241;-79
2021/12/23 11:59:18;;;;;;;30.10;17.93;;;;;;;;;;5090662;28;20634;-80
2021/12/23 12:01:45;;;;;;;29.77;19.03;;;;;;;;;;5091031;28;20204;-79
2021/12/23 12:04:13;;;;;;;32.43;19.07;;;;;;;;;;5073124;28;20710;-79
2021/12/23 12:06:39;;;;;;;29.77;18.47;;;;;;;;;;5095571;28;20207;-79
2021/12/23 12:09:10;;;;;;;31.77;18.97;;;;;;;;;;5077595;28;20180;-79
2021/12/23 12:11:37;;;;;;;29.83;17.17;;;;;;;;;;5091194;28;20178;-79
2021/12/23 12:14:04;;;;;;;28.27;17.90;;;;;;;;;;5075196;28;20716;-79
2021/12/23 12:16:32;;;;;;;31.80;19.60;;;;;;;;;;5084253;28;20216;-78
2021/12/23 12:18:59;;;;;;;29.63;18.30;;;;;;;;;;5074843;28;20181;-80
2021/12/23 12:21:28;;;;;;;30.03;17.67;;;;;;;;;;5084008;28;20254;-80
2021/12/23 12:24:06;;;;;;;28.57;17.67;;;;;;;;;;5087082;28;20173;-79
2021/12/23 12:26:35;;;;;;;27.07;17.43;;;;;;;;;;5090851;28;20200;-77
2021/12/23 12:29:04;;;;;;;26.30;17.17;;;;;;;;;;5093400;28;20168;-77
2021/12/23 12:31:38;;;;;;;27.50;17.20;;;;;;;;;;5091309;28;20184;-77
2021/12/23 12:34:09;;;;;;;29.63;18.70;;;;;;;;;;5066631;28;20652;-77
2021/12/23 12:36:42;;;;;;;28.33;17.27;;;;;;;;;;5092862;28;20762;-77
2021/12/23 12:39:09;;;;;;;33.40;24.03;;;;;;;;;;5075713;28;20652;-77
2021/12/23 12:41:37;;;;;;;33.43;19.10;;;;;;;;;;5092891;28;20222;-78
2021/12/23 12:44:10;;;;;;;27.50;17.73;;;;;;;;;;5091333;28;20173;-78
2021/12/23 12:46:40;;;;;;;25.00;17.07;;;;;;;;;;5073816;28;20201;-78
2021/12/23 12:49:15;;;;;;;26.37;16.60;;;;;;;;;;5100780;28;20595;-81
2021/12/23 12:51:43;;;;;;;27.33;16.60;;;;;;;;;;5094416;28;20297;-78
2021/12/23 12:54:13;;;;;;;24.73;15.53;;;;;;;;;;5066638;28;20188;-80
2021/12/23 12:56:49;;;;;;;27.30;16.20;;;;;;;;;;5075506;28;20676;-76
2021/12/23 12:59:16;;;;;;;25.27;15.67;;;;;;;;;;5090464;28;20707;-77
2021/12/23 13:01:45;;;;;;;23.73;15.87;;;;;;;;;;5103522;28;20260;-77
2021/12/23 13:04:21;;;;;;;27.00;16.67;;;;;;;;;;5095269;28;20200;-76
2021/12/23 13:06:47;;;;;;;23.90;15.53;;;;;;;;;;5097769;28;20180;-77
2021/12/23 13:09:36;;;;;;;23.03;15.47;;;;;;;;;;5100936;28;20178;-78
2021/12/23 13:12:33;;;;;;;27.20;15.87;;;;;;;;;;5089859;28;20180;-81
2021/12/23 13:15:22;;;;;;;24.80;15.77;;;;;;;;;;5089284;28;20200;-77
2021/12/23 13:18:18;;;;;;;25.90;16.43;;;;;;;;;;5090783;28;20203;-78
2021/12/23 13:20:49;;;;;;;24.83;16.47;;;;;;;;;;5057102;28;20205;-77
2021/12/23 13:23:36;;;;;;;27.20;17.07;;;;;;;;;;5090912;28;20172;-77
2021/12/23 13:26:06;;;;;;;24.90;15.83;;;;;;;;;;5089828;28;20620;-77
2021/12/23 13:28:37;;;;;;;24.17;15.30;;;;;;;;;;5093126;28;20172;-77
2021/12/23 13:31:08;;;;;;;24.90;16.13;;;;;;;;;;5091895;28;20196;-78
2021/12/23 13:33:43;;;;;;;24.33;15.83;;;;;;;;;;5090622;28;20192;-77
2021/12/23 13:36:13;;;;;;;23.70;15.80;;;;;;;;;;5092454;28;20196;-77
2021/12/23 13:38:41;;;;;;;24.07;15.60;;;;;;;;;;5090367;28;20593;-77
2021/12/23 13:41:15;;;;;;;23.53;15.00;;;;;;;;;;5092407;28;20231;-77
2021/12/23 13:43:42;;;;;;;26.10;16.07;;;;;;;;;;5091364;28;20560;-77
2021/12/23 13:46:09;;;;;;;21.57;13.73;;;;;;;;;;5086230;28;20193;-82
2021/12/23 13:48:48;;;;;;;23.23;15.07;;;;;;;;;;5075884;28;20195;-85
2021/12/23 13:51:15;;;;;;;23.03;14.67;;;;;;;;;;5092978;28;20172;-79
2021/12/23 13:53:41;;;;;;;25.43;14.70;;;;;;;;;;5094166;28;20242;-78
2021/12/23 13:56:11;;;;;;;24.50;15.87;;;;;;;;;;5095531;28;20233;-81
2021/12/23 13:58:38;;;;;;;25.10;15.03;;;;;;;;;;5078712;28;20713;-80
2021/12/23 14:01:04;;;;;;;25.43;15.17;;;;;;;;;;5087661;28;20245;-81
2021/12/23 14:03:30;;;;;;;25.90;15.70;;;;;;;;;;5089813;28;20234;-80
2021/12/23 14:05:56;;;;;;;24.03;14.57;;;;;;;;;;5093722;28;20656;-79
2021/12/23 14:08:25;;;;;;;22.03;14.57;;;;;;;;;;5074499;28;20193;-77
2021/12/23 14:10:51;;;;;;;21.83;14.80;;;;;;;;;;5092231;28;20176;-79
2021/12/23 14:13:19;;;;;;;24.90;14.77;;;;;;;;;;5095380;28;20181;-81
2021/12/23 14:16:02;;;;;;;25.03;16.47;;;;;;;;;;5088568;28;20770;-79
2021/12/23 14:18:59;;;;;;;26.53;15.90;;;;;;;;;;5090930;28;20245;-79
2021/12/23 14:24:33;;;;;;;24.97;15.83;;;;;;;;;;5014652;28;20194;-78
2021/12/23 14:26:59;;;;;;;22.43;14.43;;;;;;;;;;5016109;28;20278;-78
2021/12/23 14:29:31;;;;;;;23.97;15.90;;;;;;;;;;5050711;28;20196;-77
2021/12/23 14:31:58;;;;;;;25.00;15.60;;;;;;;;;;5102619;28;20825;-78
2021/12/23 14:34:27;;;;;;;27.93;15.40;;;;;;;;;;5091383;28;20185;-78
2021/12/23 14:36:59;;;;;;;21.70;14.90;;;;;;;;;;5096054;28;20168;-79
2021/12/23 14:39:26;;;;;;;21.17;14.03;;;;;;;;;;5090761;28;20267;-78
2021/12/23 14:42:00;;;;;;;21.07;13.73;;;;;;;;;;5089835;28;20677;-79
2021/12/23 14:44:34;;;;;;;22.77;14.87;;;;;;;;;;5091638;28;20267;-78
2021/12/23 14:47:11;;;;;;;24.90;14.87;;;;;;;;;;5070737;28;20229;-79
2021/12/23 14:52:21;;;;;;;23.20;14.97;;;;;;;;;;5094211;28;20185;-78
2021/12/23 14:55:01;;;;;;;23.93;14.33;;;;;;;;;;5093499;28;20215;-78
2021/12/23 14:57:33;;;;;;;24.20;14.73;;;;;;;;;;5070149;28;20555;-78
2021/12/23 15:00:00;;;;;;;21.70;14.43;;;;;;;;;;5085768;28;20299;-77
2021/12/23 15:02:28;;;;;;;23.07;15.37;;;;;;;;;;5072278;28;20599;-79
2021/12/23 15:04:58;;;;;;;25.20;15.27;;;;;;;;;;5067519;28;20308;-75
2021/12/23 15:07:24;;;;;;;21.93;14.73;;;;;;;;;;5070641;28;20157;-75
2021/12/23 15:09:56;;;;;;;28.07;13.53;;;;;;;;;;5083759;28;20242;-75
2021/12/23 15:12:23;;;;;;;25.93;14.60;;;;;;;;;;5091948;28;20168;-76
2021/12/23 15:14:51;;;;;;;21.80;13.57;;;;;;;;;;5057827;28;20581;-75
2021/12/23 15:17:26;;;;;;;22.00;13.57;;;;;;;;;;5090468;28;20233;-76
2021/12/23 15:19:54;;;;;;;22.80;14.10;;;;;;;;;;5089253;28;20678;-76
2021/12/23 15:22:25;;;;;;;20.43;14.00;;;;;;;;;;5069261;28;20173;-75
2021/12/23 15:25:05;;;;;;;22.17;14.20;;;;;;;;;;5071343;28;20201;-76
2021/12/23 15:27:32;;;;;;;22.17;14.70;;;;;;;;;;5070407;28;20180;-75
2021/12/23 15:30:02;;;;;;;21.10;14.30;;;;;;;;;;5072101;28;20184;-76
2021/12/23 15:32:29;;;;;;;24.43;15.00;;;;;;;;;;5089733;28;20237;-76
2021/12/23 15:35:04;;;;;;;20.73;14.10;;;;;;;;;;5089936;28;20208;-76
2021/12/23 15:37:36;;;;;;;20.47;13.83;;;;;;;;;;5090169;28;20196;-76
2021/12/23 15:40:04;;;;;;;24.13;15.73;;;;;;;;;;5091250;28;20726;-76
2021/12/23 15:42:31;;;;;;;21.73;14.43;;;;;;;;;;5090431;28;20263;-75